Time;durP1;ratioP1;P1;durP2;ratioP2;P2;SDS_P1;SDS_P2;PMS_P1;PMS_P2;Temp;Humidity;BMP_temperature;BMP_pressure;BME280_temperature;BME280_humidity;BME280_pressure;Samples;Min_cycle;Max_cycle;Signal;HPM_P1;HPM_P2
2021/06/01 00:06:57;;;;;;;19.00;9.70;;;;;;;6.80;64.38;98945.94;511837;1104;103170;-42
2021/06/01 00:17:02;;;;;;;18.57;9.80;;;;;;;6.65;64.35;98940.85;511625;1104;103458;-43
2021/06/01 00:27:08;;;;;;;17.60;8.10;;;;;;;6.58;64.64;98941.81;511390;1099;103195;-43
2021/06/01 00:37:14;;;;;;;19.27;8.00;;;;;;;6.62;64.81;98938.59;511528;1104;103467;-43
2021/06/01 00:47:20;;;;;;;21.70;9.47;;;;;;;6.62;65.18;98943.84;511479;1100;103189;-42
2021/06/01 00:57:27;;;;;;;19.80;10.43;;;;;;;6.51;65.13;98941.80;511732;1104;103550;-42
2021/06/01 01:17:57;;;;;;;30.10;17.77;;;;;;;6.22;65.61;98942.87;511359;1104;103475;-44
2021/06/01 01:28:04;;;;;;;31.03;18.78;;;;;;;6.08;65.84;98941.16;511339;1100;103212;-44
2021/06/01 01:38:11;;;;;;;38.13;18.53;;;;;;;6.13;66.35;98933.51;511559;1099;103203;-41
2021/06/01 01:58:41;;;;;;;37.87;19.87;;;;;;;6.09;66.64;98930.47;511287;1104;103208;-42
2021/06/01 02:08:48;;;;;;;40.90;23.67;;;;;;;6.13;67.07;98917.76;511502;1104;103558;-44
2021/06/01 02:18:54;;;;;;;44.67;23.37;;;;;;;5.97;67.39;98925.96;511643;1104;103178;-42
2021/06/01 02:29:03;;;;;;;31.87;16.97;;;;;;;5.99;67.37;98926.58;511397;1104;103178;-41
2021/06/01 02:39:10;;;;;;;30.73;17.10;;;;;;;6.00;67.50;98926.38;511454;1100;103562;-42
2021/06/01 02:49:16;;;;;;;36.75;17.80;;;;;;;6.01;67.72;98920.13;511468;1104;103170;-42
2021/06/01 02:59:23;;;;;;;41.10;23.60;;;;;;;6.15;67.96;98905.24;511414;1104;103173;-42
2021/06/01 03:09:30;;;;;;;36.87;21.90;;;;;;;6.43;67.90;98899.94;511476;1104;103189;-43
2021/06/01 03:19:36;;;;;;;38.30;23.40;;;;;;;8.21;67.42;98891.29;511501;1104;103193;-42
2021/06/01 03:29:42;;;;;;;43.27;24.10;;;;;;;10.74;65.88;98889.86;511564;1104;103190;-42
2021/06/01 03:39:48;;;;;;;32.70;20.50;;;;;;;12.29;64.05;98885.05;511480;1100;103357;-41
2021/06/01 03:49:57;;;;;;;31.27;19.07;;;;;;;13.86;62.72;98878.23;511521;1104;103196;-42
2021/06/01 04:00:04;;;;;;;38.23;20.10;;;;;;;15.17;61.32;98872.84;511427;1104;103118;-43
2021/06/01 04:10:12;;;;;;;34.80;20.03;;;;;;;16.23;60.25;98871.95;511387;1099;103165;-42
2021/06/01 04:20:20;;;;;;;40.80;20.18;;;;;;;17.93;59.14;98884.22;511591;1104;103586;-43
2021/06/01 04:30:24;;;;;;;53.00;21.00;;;;;;;17.91;57.68;98881.02;511405;1104;103202;-43
2021/06/01 04:40:30;;;;;;;39.40;19.87;;;;;;;17.93;57.20;98878.88;511640;1100;103170;-43
2021/06/01 04:50:36;;;;;;;28.17;16.50;;;;;;;17.53;57.28;98886.95;511729;1099;103560;-42
2021/06/01 05:00:42;;;;;;;29.73;16.87;;;;;;;17.73;56.81;98889.61;511236;1100;103202;-42
2021/06/01 05:10:48;;;;;;;25.63;13.73;;;;;;;17.91;56.16;98893.59;511476;1104;103111;-42
2021/06/01 05:20:55;;;;;;;31.10;11.33;;;;;;;17.95;55.20;98890.10;511177;1104;103232;-43
2021/06/01 05:41:24;;;;;;;25.77;9.93;;;;;;;17.16;54.74;98899.48;511389;1104;103171;-42
2021/06/01 06:01:51;;;;;;;14.10;7.80;;;;;;;19.21;53.61;98906.70;511464;1104;103534;-42
2021/06/01 06:11:58;;;;;;;9.17;5.63;;;;;;;20.34;51.92;98904.58;511375;1104;103177;-40
2021/06/01 06:22:03;;;;;;;6.97;3.70;;;;;;;20.64;48.78;98898.08;511268;1104;103499;-42
2021/06/01 06:32:10;;;;;;;11.27;5.33;;;;;;;20.74;47.83;98907.88;511529;1100;103114;-43
2021/06/01 06:52:37;;;;;;;4.17;2.63;;;;;;;20.72;45.21;98902.80;511425;1100;103462;-42
2021/06/01 07:02:43;;;;;;;5.10;4.30;;;;;;;20.13;45.36;98900.55;511452;1100;103487;-42
2021/06/01 07:12:51;;;;;;;9.53;4.70;;;;;;;20.32;44.92;98889.84;511397;1099;103477;-42
2021/06/01 07:23:00;;;;;;;6.00;4.23;;;;;;;20.54;45.68;98903.56;511445;1104;103196;-42
2021/06/01 07:33:06;;;;;;;6.68;3.70;;;;;;;19.98;45.70;98906.87;511371;1104;103196;-42
2021/06/01 07:53:34;;;;;;;18.20;3.10;;;;;;;20.00;44.70;98898.53;511376;1099;103143;-42
2021/06/01 08:03:40;;;;;;;3.13;2.53;;;;;;;20.31;44.45;98883.67;511566;1104;103195;-41
2021/06/01 08:13:47;;;;;;;4.20;3.07;;;;;;;20.76;44.13;98873.45;511423;1104;103205;-42
2021/06/01 08:23:53;;;;;;;5.10;2.57;;;;;;;21.24;43.74;98866.05;511485;1100;103322;-42
2021/06/01 08:33:59;;;;;;;7.67;3.03;;;;;;;21.24;42.97;98859.87;511428;1104;103668;-43
2021/06/01 08:44:06;;;;;;;2.47;2.00;;;;;;;20.35;39.88;98862.44;511249;1104;103199;-41
2021/06/01 08:54:12;;;;;;;4.20;1.90;;;;;;;19.98;41.30;98855.88;511272;1104;103147;-42
2021/06/01 09:04:18;;;;;;;4.37;2.77;;;;;;;20.18;41.06;98862.90;511428;1104;103203;-42
2021/06/01 09:25:02;;;;;;;5.23;2.13;;;;;;;19.65;41.50;98862.13;511419;1104;103237;-42
2021/06/01 09:35:08;;;;;;;5.25;2.95;;;;;;;19.55;40.96;98849.59;511497;1100;103247;-41
2021/06/01 09:45:17;;;;;;;6.20;2.10;;;;;;;19.62;40.82;98840.13;511342;1104;103471;-41
2021/06/01 09:55:29;;;;;;;4.23;1.80;;;;;;;20.08;39.57;98831.59;511440;1104;103209;-41
2021/06/01 10:05:37;;;;;;;4.43;2.27;;;;;;;20.00;40.72;98832.23;511567;1104;103182;-40
2021/06/01 10:15:44;;;;;;;3.25;2.25;;;;;;;19.44;40.41;98846.20;511602;1099;103455;-39
2021/06/01 10:25:49;;;;;;;11.40;4.20;;;;;;;18.84;41.05;98836.73;511216;1104;103255;-41
2021/06/01 10:56:53;;;;;;;8.55;3.30;;;;;;;18.37;42.82;98814.75;511369;1100;103168;-43
2021/06/01 11:07:26;;;;;;;3.60;2.70;;;;;;;18.63;43.02;98810.08;511710;1104;103197;-43
2021/06/01 11:17:37;;;;;;;5.50;3.37;;;;;;;19.01;43.63;98807.69;511321;1104;103173;-42
2021/06/01 11:38:19;;;;;;;3.60;2.63;;;;;;;19.50;42.47;98798.67;511399;1100;103175;-41
2021/06/01 11:50:57;;;;;;;2.90;2.20;;;;;;;19.54;42.83;98802.41;511568;1099;103174;-42
2021/06/01 12:19:48;;;;;;;4.00;2.60;;;;;;;19.52;41.99;98791.94;511360;1104;103175;-42
2021/06/01 16:30:20;;;;;;;3.50;2.70;;;;;;;18.32;42.36;98731.00;511356;1104;103330;-45
2021/06/01 17:11:43;;;;;;;5.53;3.00;;;;;;;17.97;43.45;98735.45;511434;1104;103172;-45
2021/06/01 17:42:50;;;;;;;9.87;4.97;;;;;;;17.68;43.90;98748.69;511461;1104;103190;-42
2021/06/01 17:52:58;;;;;;;10.00;4.60;;;;;;;17.57;44.08;98763.14;511606;1100;103156;-43
2021/06/01 18:03:06;;;;;;;8.18;6.40;;;;;;;16.96;46.08;98759.75;511434;1100;103192;-42
2021/06/01 19:57:27;;;;;;;39.20;22.20;;;;;;;14.92;54.72;98845.99;511339;1099;103235;-43
2021/06/01 20:07:34;;;;;;;42.40;21.83;;;;;;;14.69;55.47;98855.89;511653;1100;103579;-43
2021/06/01 20:17:41;;;;;;;35.40;24.20;;;;;;;14.62;55.63;98857.92;511408;1104;103192;-42
2021/06/01 20:27:52;;;;;;;21.10;12.25;;;;;;;14.52;55.86;98863.14;511367;1104;103106;-41
2021/06/01 20:37:59;;;;;;;38.20;13.60;;;;;;;14.49;56.65;98858.33;511352;1100;103445;-41
2021/06/01 20:48:08;;;;;;;22.67;13.50;;;;;;;14.42;56.46;98858.47;511472;1099;103538;-42
2021/06/01 20:58:18;;;;;;;20.10;12.30;;;;;;;14.35;56.26;98854.39;511390;1104;103196;-42
2021/06/01 21:08:25;;;;;;;21.03;13.67;;;;;;;14.20;56.64;98863.02;511403;1104;103194;-41
2021/06/01 21:18:32;;;;;;;33.30;19.43;;;;;;;14.21;56.22;98867.28;511458;1104;103551;-41
2021/06/01 21:28:38;;;;;;;20.87;13.17;;;;;;;14.17;55.72;98875.97;511466;1104;103199;-42
2021/06/01 21:38:45;;;;;;;18.07;9.93;;;;;;;14.17;55.37;98882.09;511410;1104;103205;-42
2021/06/01 21:48:54;;;;;;;19.70;10.83;;;;;;;14.01;55.62;98894.41;511616;1104;104200;-42
2021/06/01 21:58:59;;;;;;;17.30;10.90;;;;;;;13.91;55.66;98891.59;511467;1104;103212;-42
2021/06/01 22:09:05;;;;;;;17.60;10.10;;;;;;;13.81;55.58;98902.09;511250;1100;103457;-41
2021/06/01 22:19:12;;;;;;;15.80;10.00;;;;;;;13.69;56.19;98901.36;511552;1104;103202;-40
2021/06/01 22:29:19;;;;;;;15.60;9.40;;;;;;;13.59;56.00;98901.22;511460;1104;103196;-41
2021/06/01 22:39:25;;;;;;;18.80;10.60;;;;;;;13.56;56.18;98915.80;511554;1100;103285;-42
2021/06/01 22:49:32;;;;;;;21.13;11.47;;;;;;;13.40;56.17;98911.27;511306;1104;103108;-41
2021/06/01 22:59:41;;;;;;;19.50;10.40;;;;;;;13.25;55.76;98905.70;511498;1099;103669;-42
2021/06/01 23:09:52;;;;;;;15.50;8.53;;;;;;;13.12;55.38;98912.91;511571;1099;103165;-42
2021/06/01 23:20:00;;;;;;;19.60;10.40;;;;;;;13.06;55.83;98915.72;511432;1104;103189;-41
2021/06/01 23:30:09;;;;;;;16.70;9.23;;;;;;;13.00;55.88;98921.95;511481;1104;103223;-44
2021/06/01 23:40:17;;;;;;;16.00;9.70;;;;;;;13.12;55.93;98920.87;511299;1104;103199;-43
2021/06/01 23:50:23;;;;;;;12.37;8.23;;;;;;;13.04;55.75;98934.54;511419;1104;103186;-43
